Time;durP1;ratioP1;P1;durP2;ratioP2;P2;SDS_P1;SDS_P2;PMS_P1;PMS_P2;Temp;Humidity;BMP_temperature;BMP_pressure;BME280_temperature;BME280_humidity;BME280_pressure;Samples;Min_cycle;Max_cycle;Signal;HPM_P1;HPM_P2
2023/02/15 00:00:26;;;;;;;30.98;24.95;;;6.60;64.00;;;;;;4915894;29;20066;-76
2023/02/15 00:02:52;;;;;;;31.05;24.63;;;6.60;64.00;;;;;;4924492;29;20047;-76
2023/02/15 00:05:18;;;;;;;32.92;26.77;;;6.60;64.00;;;;;;4923882;29;20118;-75
2023/02/15 00:07:44;;;;;;;32.78;25.00;;;6.60;64.10;;;;;;4916692;29;20031;-75
2023/02/15 00:10:11;;;;;;;33.90;25.77;;;6.60;64.10;;;;;;4921576;29;20039;-75
2023/02/15 00:12:37;;;;;;;30.83;25.42;;;6.60;64.10;;;;;;4921619;29;20778;-76
2023/02/15 00:15:03;;;;;;;35.30;25.42;;;6.60;64.10;;;;;;4924554;29;20048;-77
2023/02/15 00:17:29;;;;;;;32.38;25.27;;;6.60;64.10;;;;;;4918424;29;20043;-75
2023/02/15 00:19:55;;;;;;;32.70;24.20;;;6.50;63.90;;;;;;4914387;29;20027;-76
2023/02/15 00:22:21;;;;;;;29.73;24.75;;;6.50;64.00;;;;;;4923070;29;20034;-76
2023/02/15 00:24:47;;;;;;;35.28;25.52;;;6.50;64.00;;;;;;4918503;29;20040;-76
2023/02/15 00:27:13;;;;;;;29.92;24.50;;;6.50;64.00;;;;;;4921915;29;20076;-77
2023/02/15 00:29:39;;;;;;;28.38;22.50;;;6.40;63.80;;;;;;4922161;29;20048;-76
2023/02/15 00:32:05;;;;;;;30.52;24.70;;;6.40;63.90;;;;;;4924505;29;20850;-76
2023/02/15 00:34:31;;;;;;;29.90;24.25;;;6.40;63.90;;;;;;4905438;29;20060;-76
2023/02/15 00:36:58;;;;;;;32.65;26.42;;;6.40;63.90;;;;;;4906187;29;20138;-75
2023/02/15 00:39:24;;;;;;;30.05;24.70;;;6.30;63.80;;;;;;4922962;29;20032;-77
2023/02/15 00:41:50;;;;;;;30.52;25.05;;;6.40;64.00;;;;;;4917797;29;20443;-76
2023/02/15 00:44:17;;;;;;;30.17;23.40;;;6.30;63.80;;;;;;4922833;29;20032;-76
2023/02/15 00:46:43;;;;;;;31.95;24.52;;;6.30;63.90;;;;;;4924367;29;20051;-75
2023/02/15 00:49:10;;;;;;;33.45;25.73;;;6.30;63.90;;;;;;4922184;29;20035;-77
2023/02/15 00:51:37;;;;;;;32.25;25.42;;;6.30;63.90;;;;;;4926832;29;20043;-76
2023/02/15 00:54:03;;;;;;;33.70;24.42;;;6.20;63.80;;;;;;4926183;29;20032;-76
2023/02/15 00:56:29;;;;;;;31.52;25.65;;;6.20;63.80;;;;;;4926979;29;20443;-75
2023/02/15 00:58:55;;;;;;;32.55;26.23;;;6.20;63.80;;;;;;4926366;29;20294;-77
2023/02/15 01:01:21;;;;;;;33.60;26.35;;;6.20;63.90;;;;;;4926903;29;20044;-76
2023/02/15 01:03:48;;;;;;;32.67;24.95;;;6.20;63.90;;;;;;4919397;29;20714;-77
2023/02/15 01:06:15;;;;;;;33.28;25.80;;;6.20;64.00;;;;;;4925473;29;20035;-77
2023/02/15 01:08:44;;;;;;;33.38;25.85;;;6.20;63.90;;;;;;4927112;29;20039;-77
2023/02/15 01:11:12;;;;;;;34.53;26.83;;;6.20;63.90;;;;;;4925182;29;20255;-76
2023/02/15 01:13:39;;;;;;;33.05;26.95;;;6.20;63.90;;;;;;4926690;29;20502;-76
2023/02/15 01:16:06;;;;;;;36.83;28.02;;;6.20;63.90;;;;;;4927932;29;20282;-76
2023/02/15 01:18:32;;;;;;;38.90;27.23;;;6.20;63.90;;;;;;4917432;29;20040;-77
2023/02/15 01:20:58;;;;;;;32.10;25.27;;;6.20;64.00;;;;;;4924603;29;20074;-77
2023/02/15 01:23:24;;;;;;;36.15;27.65;;;6.20;64.00;;;;;;4928302;29;20047;-75
2023/02/15 01:25:50;;;;;;;33.95;25.73;;;6.20;64.00;;;;;;4925338;29;20793;-76
2023/02/15 01:28:16;;;;;;;33.70;26.50;;;6.20;64.10;;;;;;4926994;29;20377;-76
2023/02/15 01:30:42;;;;;;;34.80;27.92;;;6.20;64.00;;;;;;4922179;29;20107;-75
2023/02/15 01:33:17;;;;;;;36.88;28.25;;;6.20;64.10;;;;;;4920591;29;20031;-74
2023/02/15 01:35:45;;;;;;;33.30;26.25;;;6.20;64.10;;;;;;4921043;29;20057;-76
2023/02/15 01:38:11;;;;;;;35.45;26.45;;;6.20;64.10;;;;;;4925085;29;20377;-75
2023/02/15 01:40:38;;;;;;;35.15;27.60;;;6.20;64.10;;;;;;4925783;29;20028;-75
2023/02/15 01:43:11;;;;;;;35.72;28.15;;;6.20;64.20;;;;;;4927378;29;20064;-75
2023/02/15 01:45:38;;;;;;;36.03;28.33;;;6.20;64.20;;;;;;4925747;28;20099;-74
2023/02/15 01:48:04;;;;;;;36.50;27.83;;;6.20;64.20;;;;;;4921653;29;20464;-75
2023/02/15 01:50:41;;;;;;;37.13;30.40;;;6.20;64.20;;;;;;4924366;29;20099;-75
2023/02/15 01:53:38;;;;;;;37.50;29.75;;;6.20;64.20;;;;;;4924792;29;20039;-75
2023/02/15 01:56:11;;;;;;;38.03;29.10;;;6.20;64.30;;;;;;4924488;29;20031;-76
2023/02/15 01:58:37;;;;;;;38.03;29.20;;;6.20;64.20;;;;;;4915253;29;20396;-74
2023/02/15 02:01:05;;;;;;;38.15;30.02;;;6.20;64.20;;;;;;4918474;29;20044;-75
2023/02/15 02:04:05;;;;;;;38.17;29.02;;;6.20;64.30;;;;;;4926670;29;20118;-76
2023/02/15 02:06:33;;;;;;;37.13;29.02;;;6.20;64.30;;;;;;4922206;29;20509;-76
2023/02/15 02:09:01;;;;;;;36.38;28.63;;;6.20;64.30;;;;;;4918814;29;20040;-75
2023/02/15 02:11:26;;;;;;;40.10;30.55;;;6.20;64.30;;;;;;4922954;29;20396;-75
2023/02/15 02:13:54;;;;;;;38.03;29.83;;;6.20;64.30;;;;;;4925267;29;20263;-75
2023/02/15 02:16:27;;;;;;;41.30;30.20;;;6.20;64.30;;;;;;4917204;29;20032;-76
2023/02/15 02:19:30;;;;;;;38.72;29.73;;;6.20;64.30;;;;;;4924331;29;20079;-75
2023/02/15 02:22:35;;;;;;;40.92;29.45;;;6.20;64.40;;;;;;4895494;29;20180;-76
2023/02/15 02:25:20;;;;;;;;;;;6.20;64.40;;;;;;4924193;29;20072;-77
2023/02/15 02:28:15;;;;;;;38.10;29.35;;;6.20;64.30;;;;;;4925645;29;19942;-78
2023/02/15 02:30:53;;;;;;;37.15;28.98;;;6.20;64.30;;;;;;4915475;29;20075;-77
2023/02/15 02:33:51;;;;;;;39.53;30.02;;;6.10;64.10;;;;;;4920622;29;20058;-76
2023/02/15 02:36:26;;;;;;;39.60;30.10;;;6.10;64.20;;;;;;4923262;29;20087;-76
2023/02/15 02:39:15;;;;;;;39.55;31.15;;;6.10;64.20;;;;;;4924300;29;20134;-76
2023/02/15 02:41:56;;;;;;;42.90;30.83;;;6.10;64.30;;;;;;4920281;29;20028;-76
2023/02/15 02:44:52;;;;;;;38.92;30.58;;;6.00;64.20;;;;;;4925732;29;20040;-75
2023/02/15 02:47:38;;;;;;;40.20;30.05;;;6.10;64.40;;;;;;4925354;29;20614;-77
2023/02/15 02:50:09;;;;;;;41.47;31.02;;;6.10;64.40;;;;;;4928350;29;20032;-76
2023/02/15 02:52:45;;;;;;;41.38;30.63;;;6.10;64.40;;;;;;4923418;29;20099;-76
2023/02/15 02:55:20;;;;;;;37.10;30.38;;;6.10;64.50;;;;;;4927536;29;20119;-76
2023/02/15 02:57:57;;;;;;;42.85;32.03;;;6.10;64.50;;;;;;4928141;29;20071;-76
2023/02/15 03:00:26;;;;;;;38.72;30.63;;;6.10;64.50;;;;;;4919041;29;20087;-76
2023/02/15 03:03:01;;;;;;;40.35;31.15;;;6.00;64.40;;;;;;4930017;29;20566;-75
2023/02/15 03:05:29;;;;;;;41.85;31.67;;;6.10;64.60;;;;;;4921791;29;20381;-76
2023/02/15 03:07:57;;;;;;;43.03;30.98;;;6.00;64.40;;;;;;4927116;29;20127;-74
2023/02/15 03:10:24;;;;;;;39.90;30.52;;;6.00;64.50;;;;;;4928064;29;20035;-75
2023/02/15 03:12:51;;;;;;;39.47;31.10;;;6.00;64.50;;;;;;4929250;29;20095;-75
2023/02/15 03:15:24;;;;;;;42.05;32.33;;;6.00;64.50;;;;;;4924429;29;20071;-75
2023/02/15 03:17:57;;;;;;;39.33;30.45;;;6.00;64.50;;;;;;4927562;29;20136;-77
2023/02/15 03:20:32;;;;;;;43.42;31.83;;;5.90;64.30;;;;;;4922466;29;20036;-77
2023/02/15 03:23:21;;;;;;;43.85;34.08;;;5.90;64.30;;;;;;4924747;29;20107;-75
2023/02/15 03:25:52;;;;;;;39.45;30.10;;;5.90;64.30;;;;;;4926336;29;20539;-78
2023/02/15 03:28:32;;;;;;;44.33;30.55;;;5.90;64.30;;;;;;4927360;29;20075;-78
2023/02/15 03:31:02;;;;;;;40.55;32.10;;;5.90;64.90;;;;;;4927853;29;20054;-76
2023/02/15 03:33:29;;;;;;;39.80;31.63;;;5.90;64.40;;;;;;4924899;29;20059;-77
2023/02/15 03:36:18;;;;;;;42.90;31.95;;;5.90;64.40;;;;;;4929291;29;20031;-75
2023/02/15 03:39:20;;;;;;;38.88;30.67;;;5.80;64.30;;;;;;4924954;29;20040;-76
2023/02/15 03:42:05;;;;;;;41.22;31.63;;;5.80;64.30;;;;;;4925804;29;20051;-78
2023/02/15 03:44:36;;;;;;;38.78;30.17;;;5.80;64.40;;;;;;4929014;29;20085;-77
2023/02/15 03:47:15;;;;;;;43.47;33.28;;;5.80;64.30;;;;;;4918618;29;20074;-77
2023/02/15 03:49:51;;;;;;;41.42;30.50;;;5.80;64.40;;;;;;4920033;29;20544;-78
2023/02/15 03:52:18;;;;;;;40.80;32.05;;;5.80;64.40;;;;;;4916027;29;20031;-78
2023/02/15 03:54:47;;;;;;;41.58;32.15;;;5.70;64.30;;;;;;4928061;29;20118;-77
2023/02/15 04:03:42;;;;;;;41.40;31.70;;;5.70;64.30;;;;;;4906660;29;20480;-74
2023/02/15 04:06:08;;;;;;;39.45;31.30;;;5.70;64.40;;;;;;4923003;29;20047;-76
2023/02/15 04:11:18;;;;;;;40.92;30.83;;;5.60;64.20;;;;;;4926348;29;20066;-77
2023/02/15 04:13:44;;;;;;;39.65;31.55;;;5.60;64.30;;;;;;4928040;29;20475;-76
2023/02/15 04:16:10;;;;;;;46.80;32.47;;;5.60;64.30;;;;;;4925747;29;20046;-76
2023/02/15 04:26:58;;;;;;;41.47;30.92;;;5.50;64.20;;;;;;4922899;29;20039;-79
2023/02/15 04:29:25;;;;;;;40.03;31.00;;;5.50;64.20;;;;;;4928678;29;20134;-79
2023/02/15 04:31:53;;;;;;;41.58;31.90;;;5.40;64.10;;;;;;4927900;29;20046;-77
2023/02/15 04:34:19;;;;;;;40.63;31.45;;;5.40;64.20;;;;;;4923119;29;20036;-78
2023/02/15 04:36:45;;;;;;;42.05;31.27;;;5.40;64.20;;;;;;4924849;29;20024;-78
2023/02/15 04:39:15;;;;;;;39.47;30.38;;;5.40;64.20;;;;;;4927040;29;20060;-76
2023/02/15 04:41:43;;;;;;;42.53;32.10;;;5.40;64.20;;;;;;4927271;29;20928;-77
2023/02/15 04:44:09;;;;;;;40.35;30.88;;;5.30;64.10;;;;;;4928471;29;20482;-77
2023/02/15 04:46:35;;;;;;;40.10;30.25;;;5.30;64.10;;;;;;4928431;29;20063;-77
2023/02/15 04:49:01;;;;;;;39.88;32.45;;;5.30;64.10;;;;;;4914355;29;20597;-76
2023/02/15 04:51:27;;;;;;;39.25;31.55;;;5.30;64.20;;;;;;4922948;29;20051;-75
2023/02/15 04:53:53;;;;;;;44.55;32.50;;;5.20;64.00;;;;;;4927799;29;20048;-77
2023/02/15 04:56:20;;;;;;;40.42;31.45;;;5.20;64.00;;;;;;4925859;29;20079;-77
2023/02/15 04:58:46;;;;;;;43.05;33.90;;;5.20;64.10;;;;;;4927277;29;20045;-77
2023/02/15 05:01:12;;;;;;;41.28;30.90;;;5.20;64.10;;;;;;4928181;29;20044;-78
2023/02/15 05:03:38;;;;;;;38.90;31.98;;;5.30;64.30;;;;;;4922603;29;20060;-78
2023/02/15 05:06:04;;;;;;;39.47;30.75;;;5.20;64.10;;;;;;4927635;29;20067;-79
2023/02/15 05:08:31;;;;;;;40.15;31.52;;;5.20;64.10;;;;;;4917351;29;20578;-79
2023/02/15 05:10:57;;;;;;;42.35;30.80;;;5.20;64.10;;;;;;4924016;29;20055;-78
2023/02/15 05:13:24;;;;;;;38.90;30.40;;;5.20;64.10;;;;;;4925592;29;20036;-77
2023/02/15 05:15:53;;;;;;;40.67;31.05;;;5.20;64.20;;;;;;4927797;29;20067;-78
2023/02/15 05:18:21;;;;;;;42.67;29.83;;;5.10;64.00;;;;;;4927217;29;20401;-78
2023/02/15 05:20:47;;;;;;;38.83;29.58;;;5.10;64.00;;;;;;4923692;29;20040;-77
2023/02/15 05:23:13;;;;;;;41.35;30.67;;;5.10;64.00;;;;;;4927861;29;20047;-78
2023/02/15 05:28:27;;;;;;;41.30;32.30;;;5.10;64.10;;;;;;4915422;29;20052;-76
2023/02/15 05:31:13;;;;;;;41.42;29.73;;;5.10;64.10;;;;;;4926408;29;20064;-78
2023/02/15 05:33:39;;;;;;;43.65;31.90;;;5.00;64.00;;;;;;4924277;29;20465;-75
2023/02/15 05:36:07;;;;;;;38.75;29.58;;;5.10;64.10;;;;;;4931372;29;20098;-76
2023/02/15 05:38:33;;;;;;;43.67;30.88;;;5.00;64.00;;;;;;4928744;29;20043;-77
2023/02/15 05:40:59;;;;;;;38.33;30.08;;;5.10;64.20;;;;;;4924107;29;20046;-75
2023/02/15 05:43:25;;;;;;;40.53;31.70;;;5.00;64.50;;;;;;4930551;29;20123;-77
2023/02/15 05:45:53;;;;;;;41.67;29.45;;;5.00;64.00;;;;;;4929944;29;20396;-76
2023/02/15 05:48:22;;;;;;;37.00;30.33;;;5.00;64.00;;;;;;4922245;29;20043;-77
2023/02/15 05:51:07;;;;;;;41.97;31.50;;;5.00;64.10;;;;;;4926175;29;20036;-76
2023/02/15 05:53:37;;;;;;;36.97;29.63;;;4.90;63.90;;;;;;4926156;29;20504;-77
2023/02/15 05:56:05;;;;;;;38.85;29.83;;;4.90;63.90;;;;;;4924761;29;20059;-75
2023/02/15 05:58:37;;;;;;;37.67;28.80;;;4.90;63.90;;;;;;4925638;29;20043;-75
2023/02/15 06:01:13;;;;;;;37.30;29.13;;;4.90;63.90;;;;;;4916150;29;20036;-76
2023/02/15 06:03:40;;;;;;;37.10;29.27;;;4.90;63.90;;;;;;4923641;29;20031;-75
2023/02/15 06:06:06;;;;;;;38.05;29.55;;;4.90;63.80;;;;;;4923470;29;20386;-79
2023/02/15 06:08:34;;;;;;;39.08;30.48;;;4.90;63.80;;;;;;4918659;29;20127;-80
2023/02/15 06:11:00;;;;;;;38.58;29.85;;;4.80;63.70;;;;;;4924977;29;20047;-80
2023/02/15 06:13:26;;;;;;;38.08;30.25;;;4.80;63.70;;;;;;4925351;29;20050;-79
2023/02/15 06:15:52;;;;;;;39.58;29.60;;;4.80;63.70;;;;;;4926249;29;20037;-84
2023/02/15 06:18:18;;;;;;;36.55;28.30;;;4.80;63.70;;;;;;4923433;29;20047;-89
2023/02/15 06:20:48;;;;;;;39.72;30.02;;;4.80;63.70;;;;;;4921682;29;20082;-82
2023/02/15 06:23:14;;;;;;;38.35;29.63;;;4.80;63.70;;;;;;4920365;29;20039;-80
2023/02/15 06:25:40;;;;;;;39.80;29.95;;;4.80;63.70;;;;;;4925687;29;20095;-78
2023/02/15 06:28:06;;;;;;;37.88;29.60;;;4.70;63.50;;;;;;4923638;29;20079;-78
2023/02/15 06:30:32;;;;;;;40.28;30.98;;;4.70;63.50;;;;;;4925809;29;20056;-79
2023/02/15 06:32:58;;;;;;;39.22;29.73;;;4.70;63.50;;;;;;4924694;29;20123;-78
2023/02/15 06:35:24;;;;;;;43.40;31.17;;;4.70;63.50;;;;;;4913031;29;20115;-79
2023/02/15 06:37:50;;;;;;;36.78;29.35;;;4.70;63.60;;;;;;4918111;29;20090;-78
2023/02/15 06:40:16;;;;;;;37.88;30.23;;;4.70;63.60;;;;;;4920539;29;20479;-78
2023/02/15 06:42:43;;;;;;;40.17;30.27;;;4.70;63.60;;;;;;4922848;29;20035;-78
2023/02/15 06:45:10;;;;;;;40.50;29.73;;;4.70;63.70;;;;;;4921483;29;20900;-78
2023/02/15 06:47:36;;;;;;;41.72;31.08;;;4.70;63.60;;;;;;4919853;29;20046;-82
2023/02/15 06:50:03;;;;;;;37.40;29.35;;;4.70;63.70;;;;;;4916985;29;20036;-80
2023/02/15 06:52:29;;;;;;;36.80;29.92;;;4.70;63.60;;;;;;4922496;29;20042;-81
2023/02/15 06:54:55;;;;;;;40.38;30.70;;;4.70;63.60;;;;;;4922342;29;20036;-83
2023/02/15 06:57:21;;;;;;;41.78;30.95;;;4.70;63.60;;;;;;4922396;29;20039;-80
2023/02/15 06:59:47;;;;;;;37.95;30.52;;;4.70;63.60;;;;;;4929093;29;20159;-80
2023/02/15 07:02:13;;;;;;;38.72;30.80;;;4.70;63.50;;;;;;4923320;29;20039;-79
2023/02/15 07:04:39;;;;;;;41.13;29.27;;;4.70;63.50;;;;;;4922857;29;20338;-79
2023/02/15 07:07:10;;;;;;;42.10;31.90;;;4.70;63.50;;;;;;4918778;29;20051;-79
2023/02/15 07:09:36;;;;;;;40.30;30.27;;;4.70;63.70;;;;;;4920130;29;20027;-78
2023/02/15 07:14:46;;;;;;;40.05;30.00;;;4.90;64.30;;;;;;4917040;29;20378;-75
2023/02/15 07:17:12;;;;;;;41.05;31.10;;;5.00;64.50;;;;;;4923697;29;20048;-74
2023/02/15 07:19:38;;;;;;;42.95;32.20;;;5.10;64.60;;;;;;4905184;29;20437;-75
2023/02/15 07:22:04;;;;;;;45.42;31.73;;;5.20;64.90;;;;;;4917266;29;20764;-75
2023/02/15 07:24:31;;;;;;;43.92;31.15;;;5.30;65.00;;;;;;4922393;29;20453;-77
2023/02/15 07:26:57;;;;;;;41.58;30.67;;;5.50;65.80;;;;;;4918897;29;20098;-78
2023/02/15 07:29:24;;;;;;;39.65;30.80;;;5.50;65.30;;;;;;4921549;29;20142;-78
2023/02/15 07:31:50;;;;;;;44.72;32.95;;;5.70;65.60;;;;;;4924272;29;20044;-78
2023/02/15 07:34:16;;;;;;;39.28;29.02;;;5.80;65.70;;;;;;4912911;29;20761;-82
2023/02/15 07:36:44;;;;;;;41.00;31.58;;;5.80;65.30;;;;;;4926336;29;20039;-85
2023/02/15 07:39:10;;;;;;;39.35;30.55;;;5.80;65.20;;;;;;4913761;29;20128;-80
2023/02/15 07:41:36;;;;;;;38.25;30.25;;;5.80;65.40;;;;;;4915784;29;20043;-81
2023/02/15 07:44:14;;;;;;;38.33;30.33;;;5.80;65.40;;;;;;4919699;29;20035;-81
2023/02/15 07:46:40;;;;;;;39.88;29.30;;;5.80;65.40;;;;;;4921899;29;20163;-80
2023/02/15 07:49:06;;;;;;;36.90;28.45;;;5.80;65.40;;;;;;4907830;29;20535;-80
2023/02/15 07:51:32;;;;;;;35.78;28.88;;;5.80;65.40;;;;;;4919062;29;20048;-80
2023/02/15 07:53:58;;;;;;;37.28;27.60;;;5.80;65.50;;;;;;4922215;29;20557;-80
2023/02/15 07:56:24;;;;;;;34.58;28.00;;;5.70;65.40;;;;;;4919436;29;20057;-79
2023/02/15 07:58:50;;;;;;;33.90;26.70;;;5.70;65.40;;;;;;4917002;29;20336;-81
2023/02/15 08:01:27;;;;;;;35.15;28.65;;;5.70;65.50;;;;;;4915962;29;20517;-79
2023/02/15 08:03:54;;;;;;;37.40;28.98;;;5.60;65.40;;;;;;4915949;29;20055;-79
2023/02/15 08:06:25;;;;;;;35.47;27.02;;;5.60;65.40;;;;;;4920246;29;20032;-79
2023/02/15 08:08:51;;;;;;;35.65;27.13;;;5.60;65.40;;;;;;4913704;29;20172;-78
2023/02/15 08:11:28;;;;;;;34.67;27.75;;;5.60;65.50;;;;;;4919974;29;20040;-79
2023/02/15 08:14:04;;;;;;;34.65;27.60;;;5.50;65.30;;;;;;4921874;29;20504;-79
2023/02/15 08:16:37;;;;;;;32.90;26.67;;;5.50;65.30;;;;;;4919978;29;20499;-78
2023/02/15 08:19:08;;;;;;;;;;;5.60;65.50;;;;;;4917496;29;20134;-79
2023/02/15 08:21:35;;;;;;;32.35;26.85;;;5.60;65.50;;;;;;4921318;29;20040;-78
2023/02/15 08:24:02;;;;;;;36.55;28.00;;;5.60;65.30;;;;;;4912635;29;20102;-77
2023/02/15 08:26:29;;;;;;;34.15;27.55;;;5.60;65.30;;;;;;4921939;29;20326;-77
2023/02/15 08:28:56;;;;;;;34.70;27.20;;;5.60;65.30;;;;;;4919434;29;20123;-81
2023/02/15 08:31:23;;;;;;;33.47;26.83;;;5.60;65.20;;;;;;4922489;29;20038;-78
2023/02/15 08:33:50;;;;;;;37.30;28.55;;;5.60;65.20;;;;;;4921677;29;20038;-78
2023/02/15 08:36:20;;;;;;;34.33;27.70;;;5.60;65.20;;;;;;4920883;29;20040;-78
2023/02/15 08:38:46;;;;;;;35.80;27.60;;;5.60;65.20;;;;;;4918876;29;20595;-81
2023/02/15 08:41:13;;;;;;;36.75;28.88;;;5.60;65.10;;;;;;4921080;29;20132;-81
2023/02/15 08:43:40;;;;;;;36.25;27.33;;;5.70;65.20;;;;;;4921911;29;20584;-81
2023/02/15 08:46:07;;;;;;;37.10;27.75;;;5.70;65.20;;;;;;4930172;28;20383;-83
2023/02/15 08:48:33;;;;;;;35.17;28.33;;;5.70;65.20;;;;;;4916303;29;20059;-82
2023/02/15 08:51:07;;;;;;;35.03;27.98;;;5.80;65.30;;;;;;4912560;29;20055;-79
2023/02/15 08:53:34;;;;;;;35.75;28.23;;;5.80;65.30;;;;;;4922301;29;20527;-81
2023/02/15 08:56:00;;;;;;;36.67;29.38;;;5.80;65.20;;;;;;4921494;29;20031;-85
2023/02/15 08:58:26;;;;;;;36.88;27.33;;;5.80;65.10;;;;;;4910829;29;20159;-76
2023/02/15 09:00:52;;;;;;;36.83;27.45;;;5.90;65.30;;;;;;4919320;29;20098;-77
2023/02/15 09:03:18;;;;;;;36.35;29.15;;;5.90;65.30;;;;;;4921482;29;20120;-77
2023/02/15 09:05:43;;;;;;;34.97;28.63;;;6.00;65.40;;;;;;4921075;29;20457;-77
2023/02/15 09:08:09;;;;;;;33.88;28.27;;;6.00;65.30;;;;;;4909996;29;20099;-78
2023/02/15 09:10:35;;;;;;;34.17;26.10;;;6.00;65.20;;;;;;4919328;29;20559;-77
2023/02/15 09:13:01;;;;;;;35.85;27.23;;;6.10;65.40;;;;;;4923004;29;20430;-82
2023/02/15 09:15:27;;;;;;;34.00;27.75;;;6.20;65.50;;;;;;4924515;29;20301;-82
2023/02/15 09:17:53;;;;;;;33.63;26.73;;;6.30;65.60;;;;;;4924461;29;20054;-80
2023/02/15 09:20:19;;;;;;;33.40;26.95;;;6.40;65.60;;;;;;4921933;29;20062;-79
2023/02/15 09:22:45;;;;;;;37.90;28.42;;;6.50;65.70;;;;;;4921508;29;20035;-81
2023/02/15 09:25:13;;;;;;;34.60;27.35;;;6.60;65.90;;;;;;4925160;29;20138;-81
2023/02/15 09:27:39;;;;;;;35.33;28.13;;;6.70;65.80;;;;;;4923357;29;20043;-79
2023/02/15 09:30:06;;;;;;;34.63;27.00;;;6.80;65.80;;;;;;4924565;29;20447;-79
2023/02/15 09:32:32;;;;;;;33.75;26.08;;;7.00;66.00;;;;;;4922547;29;20123;-78
2023/02/15 09:34:58;;;;;;;30.67;24.67;;;7.20;66.10;;;;;;4920276;29;20039;-80
2023/02/15 09:37:24;;;;;;;28.77;24.05;;;7.30;66.10;;;;;;4922458;29;20451;-79
2023/02/15 09:39:49;;;;;;;30.95;24.30;;;7.50;66.20;;;;;;4934814;29;20046;-80
2023/02/15 09:42:58;;;;;;;27.67;22.23;;;7.60;66.20;;;;;;4919383;29;20405;-78
2023/02/15 09:45:45;;;;;;;28.85;22.10;;;7.80;66.40;;;;;;4924605;29;20565;-79
2023/02/15 09:48:36;;;;;;;23.15;20.45;;;7.90;66.30;;;;;;4921557;29;20114;-77
2023/02/15 09:51:20;;;;;;;26.13;21.05;;;8.00;66.40;;;;;;4918171;29;20040;-78
2023/02/15 09:54:10;;;;;;;25.63;20.45;;;8.20;66.50;;;;;;4924159;29;20914;-79
2023/02/15 09:56:48;;;;;;;25.45;20.10;;;8.20;66.40;;;;;;4922532;29;20031;-79
2023/02/15 09:59:17;;;;;;;22.15;18.92;;;8.30;66.60;;;;;;4924801;29;20155;-78
2023/02/15 10:02:04;;;;;;;24.17;18.30;;;8.40;66.70;;;;;;4914028;29;20163;-77
2023/02/15 10:04:54;;;;;;;22.65;18.80;;;8.40;66.80;;;;;;4919135;29;20859;-79
2023/02/15 10:07:38;;;;;;;21.65;16.83;;;8.60;67.10;;;;;;4916298;29;20036;-77
2023/02/15 10:10:35;;;;;;;21.48;16.90;;;8.60;67.10;;;;;;4921541;29;20130;-78
2023/02/15 10:13:07;;;;;;;21.85;15.98;;;8.70;67.20;;;;;;4923259;29;20028;-79
2023/02/15 10:15:57;;;;;;;23.60;16.55;;;8.70;67.20;;;;;;4922011;29;20039;-76
2023/02/15 10:18:37;;;;;;;20.73;16.10;;;8.80;67.40;;;;;;4911765;29;20086;-76
2023/02/15 10:21:31;;;;;;;22.17;15.30;;;8.90;67.50;;;;;;4922489;29;20046;-78
2023/02/15 10:24:00;;;;;;;21.20;15.88;;;9.00;67.60;;;;;;4916796;29;20040;-78
2023/02/15 10:26:45;;;;;;;21.02;15.77;;;9.10;67.80;;;;;;4923728;29;20047;-81
2023/02/15 10:29:20;;;;;;;18.98;16.13;;;9.20;67.90;;;;;;4919072;29;20036;-82
2023/02/15 10:31:56;;;;;;;18.95;14.80;;;9.20;67.80;;;;;;4923501;29;20075;-81
2023/02/15 10:34:43;;;;;;;18.02;13.68;;;9.40;68.00;;;;;;4919481;29;20511;-80
2023/02/15 10:37:40;;;;;;;18.33;14.30;;;9.40;67.90;;;;;;4920010;29;20381;-82
2023/02/15 10:40:44;;;;;;;21.25;15.43;;;9.50;68.00;;;;;;4921971;29;20039;-79
2023/02/15 10:43:30;;;;;;;19.42;14.65;;;9.60;68.10;;;;;;4924539;29;20038;-82
2023/02/15 10:46:11;;;;;;;16.15;13.35;;;9.70;68.10;;;;;;4914019;29;20066;-82
2023/02/15 10:48:42;;;;;;;18.48;14.45;;;9.80;68.30;;;;;;4920264;29;20127;-79
2023/02/15 10:51:19;;;;;;;18.58;12.98;;;9.80;68.20;;;;;;4918325;29;20032;-80
2023/02/15 10:54:00;;;;;;;20.90;13.35;;;9.90;68.40;;;;;;4923962;29;20119;-79
2023/02/15 10:57:00;;;;;;;21.67;13.18;;;9.90;68.30;;;;;;4923598;29;20039;-80
2023/02/15 10:59:56;;;;;;;15.55;13.07;;;10.00;68.50;;;;;;4920035;29;20039;-83
2023/02/15 11:02:47;;;;;;;16.90;12.95;;;10.10;68.50;;;;;;4915815;29;20061;-89
2023/02/15 11:05:55;;;;;;;20.65;11.95;;;10.10;68.40;;;;;;4914880;29;20063;-83
2023/02/15 11:08:24;;;;;;;18.25;12.27;;;10.20;68.50;;;;;;4909131;29;20191;-79
2023/02/15 11:10:56;;;;;;;16.77;12.27;;;10.30;68.50;;;;;;4917424;29;20169;-79
2023/02/15 11:13:28;;;;;;;15.75;12.23;;;10.40;68.70;;;;;;4921715;29;20086;-78
2023/02/15 11:15:59;;;;;;;16.20;11.48;;;10.50;68.80;;;;;;4907597;29;20047;-80
2023/02/15 11:18:30;;;;;;;15.23;11.38;;;10.50;68.70;;;;;;4919264;29;20705;-79
2023/02/15 11:21:11;;;;;;;15.98;12.05;;;10.50;68.70;;;;;;4910611;29;20114;-79
2023/02/15 11:23:44;;;;;;;15.35;11.30;;;10.60;68.90;;;;;;4918242;29;20067;-80
2023/02/15 11:26:39;;;;;;;;;;;10.60;68.80;;;;;;4920448;29;20040;-79
2023/02/15 11:29:27;;;;;;;13.48;11.15;;;10.70;68.90;;;;;;4909975;29;20290;-80
2023/02/15 11:32:20;;;;;;;17.15;12.38;;;10.80;68.90;;;;;;4919961;29;20359;-82
2023/02/15 11:35:19;;;;;;;18.60;11.32;;;10.80;68.90;;;;;;4915382;29;20642;-81
2023/02/15 11:38:01;;;;;;;18.55;10.75;;;10.90;69.00;;;;;;4913525;29;20040;-83
2023/02/15 11:40:35;;;;;;;14.60;10.73;;;11.00;69.20;;;;;;4917835;29;20031;-83
2023/02/15 11:43:11;;;;;;;16.05;11.52;;;11.10;69.30;;;;;;4928018;29;20051;-82
2023/02/15 11:45:41;;;;;;;12.93;10.25;;;11.20;69.40;;;;;;4923042;29;20517;-80
2023/02/15 11:48:12;;;;;;;13.38;10.65;;;11.30;69.50;;;;;;4919484;29;20247;-80
2023/02/15 11:50:39;;;;;;;14.43;10.57;;;11.40;69.50;;;;;;4922452;29;20040;-82
2023/02/15 11:53:15;;;;;;;16.17;10.05;;;11.50;69.60;;;;;;4917061;29;20051;-84
2023/02/15 11:55:46;;;;;;;12.60;10.70;;;11.60;69.60;;;;;;4912810;29;20063;-78
2023/02/15 11:58:33;;;;;;;13.90;10.63;;;11.70;69.60;;;;;;4921907;29;20095;-81
2023/02/15 12:01:11;;;;;;;15.95;10.15;;;11.80;69.50;;;;;;4911965;29;20115;-82
2023/02/15 12:03:46;;;;;;;15.70;11.38;;;11.90;69.40;;;;;;4923241;29;20039;-79
2023/02/15 12:06:21;;;;;;;15.60;10.55;;;11.90;69.20;;;;;;4922510;29;20339;-81
2023/02/15 12:08:55;;;;;;;14.07;10.32;;;12.00;69.30;;;;;;4908594;29;20047;-80
2023/02/15 12:11:38;;;;;;;16.95;10.63;;;12.10;69.40;;;;;;4919492;29;20506;-80
2023/02/15 12:14:10;;;;;;;23.10;13.50;;;12.10;69.30;;;;;;4918232;29;20229;-81
2023/02/15 12:16:56;;;;;;;16.83;10.25;;;12.20;69.50;;;;;;4922548;29;20047;-79
2023/02/15 12:19:31;;;;;;;14.90;10.98;;;12.20;69.40;;;;;;4920618;29;20546;-78
2023/02/15 12:21:59;;;;;;;16.52;10.52;;;12.30;69.50;;;;;;4923097;29;20040;-80
2023/02/15 12:24:32;;;;;;;18.35;11.32;;;12.40;69.50;;;;;;4920484;29;20050;-81
2023/02/15 12:27:04;;;;;;;13.30;10.32;;;12.40;69.40;;;;;;4916065;29;20059;-79
2023/02/15 12:29:40;;;;;;;18.30;11.85;;;12.50;69.40;;;;;;4920398;29;20070;-83
2023/02/15 12:32:16;;;;;;;12.52;11.25;;;12.60;69.40;;;;;;4920958;29;20339;-85
2023/02/15 12:34:43;;;;;;;13.07;10.13;;;12.70;69.40;;;;;;4922087;29;20134;-84
2023/02/15 12:37:22;;;;;;;18.33;11.05;;;12.80;69.30;;;;;;4915403;29;20512;-83
2023/02/15 12:39:57;;;;;;;15.23;10.65;;;13.00;69.40;;;;;;4921515;28;20043;-83
2023/02/15 12:42:25;;;;;;;13.70;9.85;;;13.10;69.30;;;;;;4920038;29;20135;-80
2023/02/15 12:45:01;;;;;;;10.70;9.07;;;13.20;69.20;;;;;;4922208;29;20052;-84
2023/02/15 12:47:30;;;;;;;10.82;9.38;;;13.40;69.30;;;;;;4901366;29;20040;-82
2023/02/15 12:50:16;;;;;;;12.00;9.73;;;13.50;69.10;;;;;;4914928;29;20036;-84
2023/02/15 12:52:47;;;;;;;13.30;9.70;;;13.70;69.10;;;;;;4922678;29;20110;-82
2023/02/15 12:55:26;;;;;;;10.93;8.80;;;13.80;68.90;;;;;;4921394;29;20070;-82
2023/02/15 12:58:17;;;;;;;14.00;10.35;;;14.00;68.90;;;;;;4916439;29;20047;-82
2023/02/15 13:00:43;;;;;;;14.20;9.55;;;14.10;68.80;;;;;;4913350;29;20032;-82
2023/02/15 13:03:21;;;;;;;16.75;9.57;;;14.20;68.70;;;;;;4922639;29;20069;-81
2023/02/15 13:05:58;;;;;;;12.35;9.40;;;14.30;68.70;;;;;;4916525;29;20050;-81
2023/02/15 13:08:47;;;;;;;10.50;8.23;;;14.30;68.60;;;;;;4910640;29;20031;-82
2023/02/15 13:11:22;;;;;;;12.25;8.30;;;14.30;68.50;;;;;;4920480;29;20032;-82
2023/02/15 13:13:58;;;;;;;12.05;8.88;;;14.30;68.50;;;;;;4914714;29;20523;-81
2023/02/15 13:16:31;;;;;;;10.60;8.90;;;14.30;68.50;;;;;;4916543;29;20090;-82
2023/02/15 13:19:05;;;;;;;10.82;8.68;;;14.30;68.50;;;;;;4921972;29;20097;-82
2023/02/15 13:21:36;;;;;;;11.88;8.73;;;14.20;68.40;;;;;;4919464;29;20027;-81
2023/02/15 13:24:17;;;;;;;10.35;8.25;;;14.20;68.50;;;;;;4920993;29;20049;-81